Auckland, New Zealand
Current Conditions -  °F | °C
As of 7:00 AM on Wednesday 28 Jan 2015 (Local Time) from NZAA Reporting Station
Clear Clear  
Wind Chill: 66°   Ceiling: Unl
Heat Index: 66°   Visibility: 6mi
Dew Point: 63°   Wind: 9mph
Humidity: 88%   Direction: 170°S
Pressure: 29.8"   Gusts: NA
Location:  36.85°S, 174.77°E
Report Text: NZAA 271900Z AUTO 17008KT 9999 NCD 19/17 Q1009 NOSIG
Loading
Personal Weather Stations






























Interactive Weather Map New forecast layout! Learn more

10-Day Weather Forecast

Advertisements
Track Severe Weather on mobile